Tokeland, Washington
Current Conditions -  °F | °C
As of 7:53 AM on Tuesday 21 Oct 2014 (Local Time) from KHQM Reporting Station
Scattered Clouds Scattered Clouds  
Wind Chill: 56°   Ceiling: Unl
Heat Index: 56°   Visibility: 7mi
Dew Point: 54°   Wind: 8mph
Humidity: 93%   Direction: 130°SE
Pressure: 29.85"   Gusts: NA
Location:  46.71°N, 123.98°W
Report Text: KHQM 211453Z AUTO 13007KT 7SM FEW032 SCT040 13/12 A2985 RMK AO2 SLP111 60000 T01330122 51010
Loading
Personal Weather Stations






























Interactive Weather Map
Tropical Storm Tracking
New forecast layout! Learn more

10-Day Weather Forecast

Advertisements
Track Severe Weather on mobile